Time;durP1;ratioP1;P1;durP2;ratioP2;P2;SDS_P1;SDS_P2;PMS_P1;PMS_P2;Temp;Humidity;BMP_temperature;BMP_pressure;BME280_temperature;BME280_humidity;BME280_pressure;Samples;Min_cycle;Max_cycle;Signal;HPM_P1;HPM_P2
2023/11/07 00:01:37;;;;;;;20.60;10.37;;;;;;;8.15;100.00;101265.16;4986341;28;20204;-68
2023/11/07 00:04:03;;;;;;;18.33;11.47;;;;;;;8.20;100.00;101279.88;4987083;28;20942;-68
2023/11/07 00:06:29;;;;;;;29.70;10.90;;;;;;;8.13;100.00;101263.69;4990741;28;20206;-68
2023/11/07 00:08:55;;;;;;;20.77;9.37;;;;;;;8.13;100.00;101269.88;4977277;28;20543;-68
2023/11/07 00:11:20;;;;;;;17.17;9.90;;;;;;;8.24;100.00;101303.38;4992126;28;20292;-68
2023/11/07 00:13:47;;;;;;;18.33;9.87;;;;;;;8.22;100.00;101305.41;4978711;28;20447;-68
2023/11/07 00:16:13;;;;;;;17.83;8.53;;;;;;;8.26;100.00;101306.72;4975474;28;20177;-68
2023/11/07 00:18:40;;;;;;;16.77;9.03;;;;;;;8.05;100.00;101299.28;4985985;28;20451;-68
2023/11/07 00:21:06;;;;;;;15.83;7.33;;;;;;;8.19;100.00;101305.75;4989943;28;20686;-68
2023/11/07 00:23:31;;;;;;;14.73;6.83;;;;;;;8.33;100.00;101315.75;4989255;28;20447;-68
2023/11/07 00:25:57;;;;;;;15.10;6.97;;;;;;;8.01;100.00;101289.09;4988636;28;20461;-68
2023/11/07 00:28:22;;;;;;;16.77;6.20;;;;;;;8.07;100.00;101281.25;4971464;28;20197;-68
2023/11/07 00:30:48;;;;;;;17.43;6.77;;;;;;;8.28;100.00;101327.94;4994687;28;21002;-68
2023/11/07 00:33:13;;;;;;;20.33;6.93;;;;;;;8.07;100.00;101326.66;4985612;28;20720;-68
2023/11/07 00:35:41;;;;;;;20.23;6.93;;;;;;;8.27;100.00;101339.63;4979139;28;20283;-68
2023/11/07 00:38:06;;;;;;;15.67;6.90;;;;;;;8.23;100.00;101347.16;4989762;28;20205;-68
2023/11/07 00:40:32;;;;;;;16.43;6.17;;;;;;;8.03;100.00;101295.13;4973848;28;20460;-68
2023/11/07 00:42:57;;;;;;;13.00;5.90;;;;;;;8.11;100.00;101303.13;4991696;28;20197;-68
2023/11/07 00:45:23;;;;;;;12.20;5.90;;;;;;;8.28;100.00;101317.25;4991320;28;20247;-69
2023/11/07 00:47:49;;;;;;;15.47;6.00;;;;;;;8.25;100.00;101317.59;4980077;28;20223;-68
2023/11/07 00:50:15;;;;;;;17.33;7.70;;;;;;;8.15;100.00;101318.59;4996555;28;20432;-68
2023/11/07 00:52:40;;;;;;;16.43;7.47;;;;;;;8.10;100.00;101309.44;4997220;28;20808;-68
2023/11/07 00:55:07;;;;;;;22.10;7.43;;;;;;;8.07;100.00;101340.03;4974607;28;20181;-68
2023/11/07 00:57:32;;;;;;;12.20;5.63;;;;;;;8.19;100.00;101332.50;4977743;28;20343;-68
2023/11/07 00:59:58;;;;;;;15.67;6.37;;;;;;;8.08;100.00;101330.16;4992329;28;20449;-68
2023/11/07 01:02:23;;;;;;;13.20;6.03;;;;;;;8.35;100.00;101321.72;4974620;28;20209;-68
2023/11/07 01:04:49;;;;;;;16.10;6.10;;;;;;;8.05;100.00;101326.00;4990184;28;20636;-68
2023/11/07 01:07:14;;;;;;;15.63;7.00;;;;;;;8.03;100.00;101327.16;4992333;28;20209;-68
2023/11/07 01:09:40;;;;;;;12.10;6.50;;;;;;;7.72;100.00;101284.31;4995384;28;20193;-68
2023/11/07 01:12:06;;;;;;;9.63;5.70;;;;;;;7.88;100.00;101311.00;4991618;28;20209;-68
2023/11/07 01:14:31;;;;;;;17.30;7.30;;;;;;;7.92;100.00;101328.34;4993006;28;20177;-68
2023/11/07 01:16:57;;;;;;;12.87;6.67;;;;;;;7.83;100.00;101284.78;4979485;28;20942;-68
2023/11/07 01:19:22;;;;;;;14.27;7.00;;;;;;;7.68;100.00;101276.66;4995149;28;20185;-68
2023/11/07 01:21:48;;;;;;;12.43;7.10;;;;;;;7.52;100.00;101266.00;4980016;28;20232;-68
2023/11/07 01:24:13;;;;;;;14.03;7.30;;;;;;;7.87;100.00;101320.03;4971007;28;20224;-68
2023/11/07 01:26:39;;;;;;;12.17;6.63;;;;;;;7.76;100.00;101337.22;4991525;28;20304;-68
2023/11/07 01:29:04;;;;;;;11.03;6.33;;;;;;;7.76;100.00;101331.88;4997162;28;20184;-68
2023/11/07 01:31:30;;;;;;;18.03;7.93;;;;;;;7.72;100.00;101333.22;4995645;28;20216;-68
2023/11/07 01:33:56;;;;;;;12.03;6.87;;;;;;;7.63;100.00;101345.72;4989258;28;20827;-68
2023/11/07 01:36:21;;;;;;;17.90;8.53;;;;;;;7.64;100.00;101357.25;4978589;28;20207;-68
2023/11/07 01:38:47;;;;;;;16.20;8.57;;;;;;;7.43;100.00;101339.03;4978411;28;20201;-68
2023/11/07 01:41:13;;;;;;;17.13;8.43;;;;;;;7.73;100.00;101371.44;4995088;28;20262;-68
2023/11/07 01:43:39;;;;;;;17.20;9.00;;;;;;;7.76;100.00;101353.25;4990806;28;20463;-68
2023/11/07 01:46:05;;;;;;;14.13;8.37;;;;;;;7.77;100.00;101362.09;4977507;28;20197;-68
2023/11/07 01:48:31;;;;;;;26.13;10.47;;;;;;;7.46;100.00;101350.25;4993026;28;20449;-68
2023/11/07 01:50:57;;;;;;;16.20;9.57;;;;;;;7.77;100.00;101391.47;4992385;28;20460;-68
2023/11/07 01:53:24;;;;;;;18.00;8.93;;;;;;;7.80;100.00;101391.13;4995840;28;20196;-68
2023/11/07 01:55:49;;;;;;;28.20;11.53;;;;;;;7.66;100.00;101419.31;4990896;28;20601;-66
2023/11/07 01:58:16;;;;;;;16.37;10.20;;;;;;;7.65;100.00;101393.63;4978765;28;21181;-66
2023/11/07 02:00:43;;;;;;;21.87;10.20;;;;;;;7.56;100.00;101405.31;4974429;28;20260;-66
2023/11/07 02:03:09;;;;;;;19.23;11.10;;;;;;;7.54;100.00;101426.00;4991684;28;20475;-66
2023/11/07 02:05:35;;;;;;;27.67;12.77;;;;;;;7.41;100.00;101408.63;4997083;28;20970;-66
2023/11/07 02:08:01;;;;;;;23.03;12.13;;;;;;;7.65;100.00;101447.03;4992385;28;20552;-69
2023/11/07 02:10:26;;;;;;;25.20;12.40;;;;;;;7.39;100.00;101425.78;4994472;28;20278;-69
2023/11/07 02:12:53;;;;;;;22.17;11.73;;;;;;;7.73;100.00;101476.41;4990681;28;20436;-69
2023/11/07 02:15:19;;;;;;;18.07;12.30;;;;;;;7.69;100.00;101489.28;4979909;28;20185;-69
2023/11/07 02:17:45;;;;;;;18.63;12.30;;;;;;;7.69;100.00;101491.09;4981133;28;20464;-69
2023/11/07 02:20:13;;;;;;;22.27;13.00;;;;;;;7.65;100.00;101490.59;4991764;28;21899;-67
2023/11/07 02:23:01;;;;;;;21.30;14.50;;;;;;;7.86;100.00;101503.47;4976847;28;20641;-67
2023/11/07 02:25:27;;;;;;;24.57;13.40;;;;;;;7.88;100.00;101517.50;4974535;28;20504;-66
2023/11/07 02:27:52;;;;;;;27.20;14.10;;;;;;;7.77;100.00;101530.34;4984528;28;20468;-66
2023/11/07 02:30:18;;;;;;;18.47;13.07;;;;;;;7.79;100.00;101504.31;4985321;28;20644;-66
2023/11/07 02:32:43;;;;;;;22.67;14.70;;;;;;;8.06;100.00;101529.88;4986716;28;20193;-66
2023/11/07 02:35:12;;;;;;;20.93;14.00;;;;;;;8.01;100.00;101546.41;4993205;28;20208;-67
2023/11/07 02:37:38;;;;;;;28.83;14.80;;;;;;;8.01;100.00;101542.88;4979774;28;20181;-66
2023/11/07 02:40:06;;;;;;;17.83;13.60;;;;;;;8.08;100.00;101544.75;4990212;28;20570;-67
2023/11/07 02:42:31;;;;;;;21.70;14.30;;;;;;;7.96;100.00;101535.38;4997996;28;20440;-66
2023/11/07 02:44:57;;;;;;;22.83;15.03;;;;;;;8.11;100.00;101551.59;4995377;28;20444;-66
2023/11/07 02:47:23;;;;;;;23.90;14.73;;;;;;;8.06;100.00;101548.59;4979590;28;20197;-66
2023/11/07 02:49:49;;;;;;;19.73;14.50;;;;;;;7.88;100.00;101530.03;4990849;28;20181;-66
2023/11/07 02:52:14;;;;;;;23.00;15.43;;;;;;;8.13;100.00;101558.47;4989494;28;20979;-66
2023/11/07 02:54:40;;;;;;;27.57;16.23;;;;;;;8.06;100.00;101557.44;4980385;28;20185;-66
2023/11/07 02:57:05;;;;;;;23.90;16.37;;;;;;;8.20;100.00;101558.63;4989644;28;20711;-67
2023/11/07 02:59:31;;;;;;;22.00;14.27;;;;;;;8.27;100.00;101556.13;4992367;28;20726;-68
2023/11/07 03:01:57;;;;;;;19.90;14.13;;;;;;;8.34;100.00;101565.16;4992355;28;20205;-66
2023/11/07 03:04:23;;;;;;;20.80;14.13;;;;;;;8.32;100.00;101554.63;4998193;28;20498;-66
2023/11/07 03:06:48;;;;;;;19.87;12.93;;;;;;;8.51;100.00;101566.03;5000122;28;20480;-66
2023/11/07 03:09:15;;;;;;;27.63;13.03;;;;;;;8.55;100.00;101568.19;4974520;28;20181;-66
2023/11/07 03:11:40;;;;;;;17.77;11.93;;;;;;;8.49;100.00;101566.19;4996837;28;20216;-67
2023/11/07 03:14:06;;;;;;;17.00;13.30;;;;;;;8.55;100.00;101556.66;4990592;28;20449;-66
2023/11/07 03:16:33;;;;;;;25.20;13.30;;;;;;;8.52;100.00;101557.00;4997723;28;20185;-66
2023/11/07 03:18:59;;;;;;;27.13;12.50;;;;;;;8.64;100.00;101560.16;4988548;28;20209;-67
2023/11/07 03:21:25;;;;;;;16.70;11.10;;;;;;;8.41;100.00;101527.91;4993370;28;20483;-67
2023/11/07 03:23:50;;;;;;;17.97;11.33;;;;;;;8.64;100.00;101547.63;4991546;28;20430;-67
2023/11/07 03:26:16;;;;;;;22.03;12.13;;;;;;;8.63;100.00;101555.84;4977756;28;20228;-66
2023/11/07 03:28:41;;;;;;;23.20;11.47;;;;;;;8.60;100.00;101552.47;4999427;28;20181;-66
2023/11/07 03:31:07;;;;;;;18.90;11.40;;;;;;;8.65;100.00;101546.63;4996541;28;20251;-67
2023/11/07 03:33:32;;;;;;;19.73;11.10;;;;;;;8.65;100.00;101553.81;4988518;28;20327;-66
2023/11/07 03:35:58;;;;;;;14.93;9.90;;;;;;;8.66;100.00;101550.13;4999346;28;20182;-67
2023/11/07 03:38:24;;;;;;;15.07;10.57;;;;;;;8.37;100.00;101506.00;4998622;28;20204;-67
2023/11/07 03:40:49;;;;;;;14.43;9.67;;;;;;;8.64;100.00;101550.28;4999147;28;20467;-66
2023/11/07 03:43:16;;;;;;;17.07;9.20;;;;;;;8.77;100.00;101550.63;4997894;28;20238;-66
2023/11/07 03:45:41;;;;;;;17.13;9.77;;;;;;;8.41;100.00;101502.03;4997055;28;20208;-67
2023/11/07 03:48:07;;;;;;;26.07;10.13;;;;;;;8.46;100.00;101515.72;4999861;28;20442;-67
2023/11/07 03:50:32;;;;;;;21.70;9.77;;;;;;;8.84;100.00;101540.06;4999686;28;20208;-67
2023/11/07 03:52:58;;;;;;;15.63;9.80;;;;;;;8.62;100.00;101530.94;5002228;28;20189;-67
2023/11/07 03:55:23;;;;;;;15.93;9.57;;;;;;;8.61;100.00;101539.94;4981756;28;20185;-67
2023/11/07 03:57:49;;;;;;;17.23;9.47;;;;;;;8.05;100.00;101440.88;5000762;28;20185;-67
2023/11/07 04:00:14;;;;;;;18.87;10.10;;;;;;;8.49;100.00;101525.25;4989345;28;20185;-66
2023/11/07 04:02:40;;;;;;;17.80;9.73;;;;;;;8.53;100.00;101538.13;4976976;28;20189;-66
2023/11/07 04:05:05;;;;;;;20.33;10.50;;;;;;;8.67;100.00;101530.41;4977505;28;20185;-66
2023/11/07 04:07:31;;;;;;;15.30;9.67;;;;;;;8.62;100.00;101525.59;4998535;28;20213;-66
2023/11/07 04:09:57;;;;;;;24.43;11.50;;;;;;;8.35;100.00;101508.84;4999948;28;20273;-66
2023/11/07 04:12:23;;;;;;;17.60;9.73;;;;;;;8.40;100.00;101489.66;4999463;28;20229;-67
2023/11/07 04:14:49;;;;;;;12.90;9.87;;;;;;;8.57;100.00;101528.75;4996782;28;20190;-66
2023/11/07 04:17:15;;;;;;;20.57;9.70;;;;;;;8.57;100.00;101542.13;4993195;28;20444;-67
2023/11/07 04:19:41;;;;;;;18.93;10.17;;;;;;;8.52;100.00;101509.69;4982586;28;20438;-66
2023/11/07 04:22:07;;;;;;;16.83;9.13;;;;;;;8.55;100.00;101511.19;4979470;28;20464;-66
2023/11/07 04:24:37;;;;;;;18.20;8.87;;;;;;;8.65;100.00;101517.22;4997489;28;20933;-66
2023/11/07 04:27:07;;;;;;;18.33;8.90;;;;;;;8.43;100.00;101525.94;5003829;28;20237;-67
2023/11/07 04:29:33;;;;;;;18.80;9.80;;;;;;;8.59;100.00;101526.75;4990366;28;20436;-66
2023/11/07 04:31:58;;;;;;;25.73;9.57;;;;;;;8.47;100.00;101521.91;5003121;28;20462;-67
2023/11/07 04:34:23;;;;;;;17.93;9.10;;;;;;;8.52;100.00;101524.91;5001296;28;20192;-66
2023/11/07 04:36:51;;;;;;;22.53;9.77;;;;;;;8.44;100.00;101520.41;5002798;28;20994;-66
2023/11/07 04:39:17;;;;;;;16.00;8.83;;;;;;;8.64;100.00;101523.56;5001525;28;20190;-66
2023/11/07 04:41:43;;;;;;;18.93;9.80;;;;;;;8.35;100.00;101513.34;5006866;28;20464;-66
2023/11/07 04:44:08;;;;;;;14.00;9.00;;;;;;;8.32;100.00;101490.47;4986989;28;20201;-67
2023/11/07 04:46:37;;;;;;;21.90;9.70;;;;;;;8.28;100.00;101485.63;4985490;28;20209;-67
2023/11/07 04:49:05;;;;;;;18.63;9.10;;;;;;;8.46;100.00;101509.53;4997920;28;20259;-67
2023/11/07 04:51:31;;;;;;;22.07;9.30;;;;;;;8.37;100.00;101516.69;4995318;28;20518;-66
2023/11/07 04:53:56;;;;;;;17.73;8.03;;;;;;;8.42;100.00;101513.53;4983305;28;20439;-66
2023/11/07 04:56:23;;;;;;;13.70;7.90;;;;;;;8.32;100.00;101511.84;4996596;28;20509;-66
2023/11/07 04:58:49;;;;;;;14.70;8.40;;;;;;;8.36;100.00;101513.19;4992725;28;20189;-66
2023/11/07 05:01:15;;;;;;;14.77;8.13;;;;;;;8.28;100.00;101499.00;4985189;28;20463;-66
2023/11/07 05:03:41;;;;;;;17.13;8.73;;;;;;;8.09;100.00;101497.50;4978526;28;21138;-66
2023/11/07 05:06:07;;;;;;;19.70;8.40;;;;;;;8.39;100.00;101520.09;4996833;28;20506;-67
2023/11/07 05:08:33;;;;;;;19.10;8.60;;;;;;;8.29;100.00;101519.38;5003071;28;20435;-66
2023/11/07 05:10:58;;;;;;;19.40;10.07;;;;;;;8.25;100.00;101518.88;4999448;28;21012;-66
2023/11/07 05:13:24;;;;;;;16.60;7.77;;;;;;;8.35;100.00;101516.03;4996989;28;20189;-66
2023/11/07 05:15:50;;;;;;;25.60;9.33;;;;;;;8.13;100.00;101504.19;4994725;28;20729;-66
2023/11/07 05:18:15;;;;;;;24.97;8.70;;;;;;;8.19;100.00;101514.22;4995087;28;20864;-66
2023/11/07 05:20:44;;;;;;;13.97;8.03;;;;;;;8.49;100.00;101531.44;4998061;28;20206;-67
2023/11/07 05:23:09;;;;;;;14.27;7.77;;;;;;;8.48;100.00;101523.59;5001477;28;20654;-67
2023/11/07 05:25:35;;;;;;;15.13;8.00;;;;;;;8.26;100.00;101509.84;4996852;28;20470;-66
2023/11/07 05:28:07;;;;;;;17.20;7.50;;;;;;;8.29;100.00;101535.41;4990521;28;20225;-67
2023/11/07 05:30:32;;;;;;;18.77;7.93;;;;;;;8.26;100.00;101536.56;4993673;28;20874;-66
2023/11/07 05:32:57;;;;;;;17.97;8.03;;;;;;;8.11;100.00;101533.72;4994272;28;20455;-66
2023/11/07 05:35:23;;;;;;;16.13;8.33;;;;;;;8.28;100.00;101547.94;4999169;28;20193;-67
2023/11/07 05:37:49;;;;;;;11.93;7.43;;;;;;;8.25;100.00;101550.94;4994734;28;20777;-66
2023/11/07 05:40:16;;;;;;;13.70;7.33;;;;;;;8.07;100.00;101535.06;4995581;28;20814;-66
2023/11/07 05:42:43;;;;;;;15.23;6.97;;;;;;;8.15;100.00;101552.94;4995273;28;20279;-66
2023/11/07 05:45:10;;;;;;;21.03;8.83;;;;;;;7.97;100.00;101554.91;4978100;28;20452;-66
2023/11/07 05:47:37;;;;;;;26.23;9.00;;;;;;;8.14;100.00;101569.97;4983324;28;20460;-66
2023/11/07 05:50:06;;;;;;;15.67;7.53;;;;;;;8.07;100.00;101575.16;4985931;28;20435;-66
2023/11/07 05:52:32;;;;;;;13.23;7.87;;;;;;;8.04;100.00;101582.63;4996635;28;20444;-66
2023/11/07 05:55:01;;;;;;;17.57;7.40;;;;;;;8.07;100.00;101591.19;4992610;28;20478;-68
2023/11/07 05:57:27;;;;;;;17.33;8.07;;;;;;;7.57;100.00;101535.94;4980528;28;20444;-68
2023/11/07 05:59:52;;;;;;;19.90;8.07;;;;;;;7.98;100.00;101599.31;4983205;28;20447;-69
2023/11/07 06:02:18;;;;;;;12.53;6.40;;;;;;;7.93;100.00;101589.97;4999074;28;20220;-68
2023/11/07 06:04:43;;;;;;;14.70;7.23;;;;;;;7.85;100.00;101568.59;4979138;28;20178;-68
2023/11/07 06:07:09;;;;;;;19.43;7.50;;;;;;;7.96;100.00;101609.34;4997292;28;20777;-68
2023/11/07 06:09:35;;;;;;;13.10;7.57;;;;;;;7.83;100.00;101618.66;4998975;28;21043;-68
2023/11/07 06:12:01;;;;;;;19.43;8.20;;;;;;;7.66;100.00;101595.56;4997945;28;21001;-68
2023/11/07 06:14:27;;;;;;;19.57;7.90;;;;;;;8.03;100.00;101632.56;4998035;28;20878;-68
2023/11/07 06:16:53;;;;;;;13.83;7.53;;;;;;;7.99;100.00;101620.53;4996514;28;20295;-68
2023/11/07 06:19:20;;;;;;;12.43;6.80;;;;;;;7.91;100.00;101636.53;4982717;28;20205;-68
2023/11/07 06:21:45;;;;;;;17.30;8.27;;;;;;;8.00;100.00;101640.09;4996832;28;20452;-68
2023/11/07 06:24:10;;;;;;;16.13;7.17;;;;;;;7.66;100.00;101598.22;4991859;28;20444;-68
2023/11/07 06:26:36;;;;;;;18.23;7.47;;;;;;;7.92;100.00;101647.06;4995778;28;20224;-66
2023/11/07 06:29:05;;;;;;;14.40;7.77;;;;;;;7.90;100.00;101650.91;4997578;28;20807;-66
2023/11/07 06:31:31;;;;;;;18.90;7.70;;;;;;;8.06;100.00;101669.66;4997203;28;20707;-66
2023/11/07 06:33:56;;;;;;;20.00;7.70;;;;;;;7.78;100.00;101634.34;5001842;28;20439;-66
2023/11/07 06:36:24;;;;;;;18.70;8.50;;;;;;;8.00;100.00;101683.66;5005303;28;20188;-66
2023/11/07 06:38:50;;;;;;;21.83;8.07;;;;;;;8.03;100.00;101702.03;4999820;28;20185;-66
2023/11/07 06:41:17;;;;;;;14.23;6.70;;;;;;;8.02;100.00;101699.53;4985677;28;20494;-67
2023/11/07 06:43:46;;;;;;;14.00;7.50;;;;;;;8.08;100.00;101706.91;4997302;28;20447;-66
2023/11/07 06:46:13;;;;;;;20.30;7.07;;;;;;;7.96;100.00;101711.69;4986320;28;20552;-66
2023/11/07 06:48:39;;;;;;;17.73;7.13;;;;;;;8.06;100.00;101728.44;4980370;28;20866;-66
2023/11/07 06:51:05;;;;;;;15.13;7.43;;;;;;;8.09;100.00;101714.75;4993312;28;20463;-66
2023/11/07 06:53:30;;;;;;;17.00;8.13;;;;;;;8.04;100.00;101718.91;4999887;28;20193;-66
2023/11/07 06:55:57;;;;;;;14.60;6.90;;;;;;;8.11;100.00;101728.78;5001778;28;20192;-66
2023/11/07 06:58:25;;;;;;;13.90;6.07;;;;;;;8.09;100.00;101729.94;5004557;28;20280;-68
2023/11/07 07:00:54;;;;;;;19.67;7.37;;;;;;;8.15;100.00;101735.47;4983269;28;20460;-68
2023/11/07 07:03:20;;;;;;;11.60;6.30;;;;;;;7.91;100.00;101698.81;4995496;28;21080;-68
2023/11/07 07:05:45;;;;;;;13.30;6.30;;;;;;;8.15;100.00;101729.31;4976471;28;20535;-68
2023/11/07 07:08:10;;;;;;;17.10;7.60;;;;;;;8.02;100.00;101720.91;4993182;28;20227;-68
2023/11/07 07:10:38;;;;;;;16.60;7.80;;;;;;;8.07;100.00;101723.91;4997278;28;20208;-68
2023/11/07 07:13:03;;;;;;;15.20;6.60;;;;;;;8.02;100.00;101691.53;5000949;28;20189;-68
2023/11/07 07:15:29;;;;;;;14.27;6.70;;;;;;;8.13;100.00;101729.47;4988382;28;20450;-68
2023/11/07 07:17:54;;;;;;;19.10;6.67;;;;;;;7.99;100.00;101730.09;4997685;28;20187;-68
2023/11/07 07:20:20;;;;;;;18.47;5.93;;;;;;;7.96;100.00;101732.25;5003134;28;20255;-68
2023/11/07 07:22:46;;;;;;;20.40;8.00;;;;;;;7.99;100.00;101737.28;5002254;28;20177;-68
2023/11/07 07:25:20;;;;;;;13.97;6.43;;;;;;;7.52;100.00;101666.44;4981502;28;20178;-68
2023/11/07 07:27:47;;;;;;;20.30;6.60;;;;;;;8.07;100.00;101750.63;4982254;28;20472;-68
2023/11/07 07:30:20;;;;;;;15.83;7.27;;;;;;;7.98;100.00;101751.59;4984221;28;20884;-68
2023/11/07 07:32:49;;;;;;;15.97;7.20;;;;;;;8.03;100.00;101752.81;4999564;28;20551;-69
2023/11/07 07:35:15;;;;;;;11.97;7.03;;;;;;;7.40;100.00;101641.81;4992692;28;20998;-68
2023/11/07 07:37:45;;;;;;;17.70;7.97;;;;;;;7.73;100.00;101723.94;4997320;28;20428;-68
2023/11/07 07:40:16;;;;;;;17.23;6.83;;;;;;;7.93;100.00;101758.28;4993585;28;20444;-68
2023/11/07 07:42:44;;;;;;;16.30;7.00;;;;;;;7.48;100.00;101655.19;4989694;28;20891;-68
2023/11/07 07:45:11;;;;;;;17.07;7.23;;;;;;;7.90;100.00;101745.25;4984564;28;20448;-68
2023/11/07 07:47:38;;;;;;;13.37;6.40;;;;;;;7.95;100.00;101750.09;5002243;28;20499;-68
2023/11/07 07:50:10;;;;;;;11.60;7.27;;;;;;;8.03;100.00;101762.66;5002935;28;20450;-68
2023/11/07 07:52:37;;;;;;;12.20;6.90;;;;;;;8.13;100.00;101766.06;4999554;28;20474;-68
2023/11/07 07:55:07;;;;;;;15.33;6.23;;;;;;;7.89;100.00;101721.34;4996400;28;20835;-68
2023/11/07 07:57:36;;;;;;;15.40;6.83;;;;;;;7.86;100.00;101737.69;4986557;28;20429;-68
2023/11/07 08:00:24;;;;;;;13.00;6.30;;;;;;;7.91;100.00;101738.06;5001740;28;20431;-68
2023/11/07 08:02:53;;;;;;;10.83;5.70;;;;;;;8.24;100.00;101755.06;5002617;28;20428;-69
2023/11/07 08:05:19;;;;;;;14.87;6.30;;;;;;;7.79;100.00;101725.97;4984105;28;20468;-68
2023/11/07 08:07:45;;;;;;;17.73;6.53;;;;;;;7.99;100.00;101758.66;5002414;28;20576;-69
2023/11/07 08:10:16;;;;;;;14.77;6.30;;;;;;;7.97;100.00;101747.25;5006350;28;21294;-68
2023/11/07 08:12:45;;;;;;;14.30;6.13;;;;;;;7.76;100.00;101712.94;4995936;28;20848;-69
2023/11/07 08:15:11;;;;;;;13.63;7.07;;;;;;;8.05;100.00;101741.97;4980089;28;20443;-69
2023/11/07 08:17:37;;;;;;;18.53;5.67;;;;;;;7.75;100.00;101690.72;5001107;28;20483;-68
2023/11/07 08:20:14;;;;;;;12.57;6.60;;;;;;;8.01;100.00;101728.06;5001849;28;20523;-69
2023/11/07 08:22:43;;;;;;;18.60;6.50;;;;;;;8.02;100.00;101756.47;4991740;28;20482;-69
2023/11/07 08:25:12;;;;;;;16.30;6.77;;;;;;;7.99;100.00;101755.97;4982632;28;20440;-69
2023/11/07 08:27:42;;;;;;;18.13;6.80;;;;;;;8.05;100.00;101752.66;4999956;28;20467;-69
2023/11/07 08:30:16;;;;;;;13.70;6.87;;;;;;;8.16;100.00;101744.34;4997864;28;20448;-68
2023/11/07 08:32:42;;;;;;;12.37;5.63;;;;;;;8.05;100.00;101741.97;5000333;28;20807;-69
2023/11/07 08:35:11;;;;;;;14.23;6.50;;;;;;;8.09;100.00;101751.31;5001829;28;20531;-69
2023/11/07 08:37:39;;;;;;;11.97;5.97;;;;;;;8.11;100.00;101727.97;4983680;28;20427;-68
2023/11/07 08:40:08;;;;;;;13.40;6.07;;;;;;;8.34;100.00;101741.59;4999241;28;20446;-69
2023/11/07 08:42:34;;;;;;;10.60;5.87;;;;;;;8.24;100.00;101741.69;4981563;28;20444;-68
2023/11/07 08:44:59;;;;;;;12.50;6.60;;;;;;;8.37;100.00;101723.38;5000567;28;20463;-67
2023/11/07 08:47:26;;;;;;;16.10;6.10;;;;;;;8.42;100.00;101730.09;4981335;28;20276;-67
2023/11/07 08:49:55;;;;;;;12.20;4.90;;;;;;;8.37;100.00;101714.53;5000089;28;20921;-67
2023/11/07 08:52:21;;;;;;;12.40;5.63;;;;;;;8.46;100.00;101729.63;4995816;28;21258;-66
2023/11/07 08:54:46;;;;;;;12.37;6.03;;;;;;;8.38;100.00;101725.06;5001946;28;20483;-66
2023/11/07 08:57:12;;;;;;;15.83;5.73;;;;;;;8.43;100.00;101711.22;4999589;28;20425;-67
2023/11/07 08:59:44;;;;;;;15.97;5.10;;;;;;;8.47;100.00;101733.13;4998737;28;20264;-66
2023/11/07 09:02:12;;;;;;;14.57;4.97;;;;;;;8.48;100.00;101734.81;4999520;28;20210;-67
2023/11/07 09:04:38;;;;;;;18.33;5.50;;;;;;;8.60;100.00;101736.16;4985613;28;20466;-67
2023/11/07 09:07:04;;;;;;;9.97;5.40;;;;;;;8.65;100.00;101728.50;4981871;28;20977;-66
2023/11/07 09:09:30;;;;;;;13.77;5.23;;;;;;;8.75;100.00;101729.16;4996955;28;20195;-67
2023/11/07 09:11:56;;;;;;;9.20;4.80;;;;;;;8.81;100.00;101738.38;5002564;28;20467;-67
2023/11/07 09:14:27;;;;;;;13.07;5.70;;;;;;;8.54;100.00;101742.19;4999331;28;20292;-66
2023/11/07 09:16:53;;;;;;;7.93;4.60;;;;;;;8.62;100.00;101733.31;5005242;28;20570;-67
2023/11/07 09:19:18;;;;;;;19.30;5.50;;;;;;;8.65;100.00;101733.84;4989201;28;20427;-67
2023/11/07 09:21:44;;;;;;;11.50;5.53;;;;;;;8.55;100.00;101741.16;5001808;28;22031;-67
2023/11/07 09:24:09;;;;;;;9.13;4.77;;;;;;;8.65;100.00;101744.53;4987692;28;20729;-66
2023/11/07 09:26:35;;;;;;;11.40;4.80;;;;;;;8.53;100.00;101732.47;5002844;28;20216;-67
2023/11/07 09:29:00;;;;;;;10.23;5.60;;;;;;;8.65;100.00;101755.25;5004960;28;20216;-66
2023/11/07 09:31:26;;;;;;;12.50;6.10;;;;;;;8.49;100.00;101742.66;5006100;28;20283;-67
2023/11/07 09:33:51;;;;;;;9.53;5.00;;;;;;;8.58;100.00;101743.50;4987468;28;20845;-67
2023/11/07 09:36:17;;;;;;;12.47;5.40;;;;;;;8.58;100.00;101739.00;5002253;28;20502;-67
2023/11/07 09:38:42;;;;;;;8.50;5.10;;;;;;;8.76;100.00;101741.53;4997810;28;20644;-67
2023/11/07 09:41:08;;;;;;;12.80;5.93;;;;;;;8.80;100.00;101750.91;4999221;28;20213;-67
2023/11/07 09:43:34;;;;;;;9.00;4.47;;;;;;;8.90;100.00;101744.56;5002770;28;20192;-67
2023/11/07 09:46:01;;;;;;;11.50;5.50;;;;;;;8.98;100.00;101745.41;4997187;28;20409;-66
2023/11/07 09:48:28;;;;;;;9.47;4.73;;;;;;;9.07;100.00;101743.59;4988459;28;20220;-66
2023/11/07 09:50:55;;;;;;;14.70;4.77;;;;;;;9.13;100.00;101740.22;5006686;28;21012;-67
2023/11/07 09:53:21;;;;;;;9.30;5.10;;;;;;;9.10;100.00;101719.16;5003016;28;20575;-66
2023/11/07 09:55:49;;;;;;;9.00;4.87;;;;;;;9.24;100.00;101745.25;4993127;28;20444;-67
2023/11/07 09:58:28;;;;;;;6.50;4.10;;;;;;;9.02;100.00;101711.13;5002913;28;20428;-67
2023/11/07 10:00:57;;;;;;;10.83;5.10;;;;;;;9.18;100.00;101751.28;4996901;28;20555;-67
2023/11/07 10:03:23;;;;;;;8.90;5.20;;;;;;;9.13;100.00;101742.06;4997755;28;20435;-67
2023/11/07 10:05:49;;;;;;;11.20;5.07;;;;;;;9.15;100.00;101745.44;4999794;28;20447;-67
2023/11/07 10:08:18;;;;;;;9.90;4.70;;;;;;;9.22;100.00;101744.56;5002873;28;20181;-67
2023/11/07 10:10:43;;;;;;;10.47;4.97;;;;;;;9.15;100.00;101743.59;5003694;28;20550;-66
2023/11/07 10:13:11;;;;;;;11.30;4.40;;;;;;;9.30;100.00;101734.88;4986711;28;20499;-67
2023/11/07 10:15:37;;;;;;;11.03;4.83;;;;;;;9.31;100.00;101733.88;4992679;28;20663;-66
2023/11/07 10:18:10;;;;;;;8.13;5.33;;;;;;;9.41;100.00;101740.72;5004408;28;20903;-67
2023/11/07 10:20:50;;;;;;;12.13;5.37;;;;;;;9.40;100.00;101741.75;5002819;28;20499;-67
2023/11/07 10:23:17;;;;;;;12.07;5.00;;;;;;;9.48;100.00;101740.88;4979753;28;20463;-67
2023/11/07 10:25:49;;;;;;;11.40;4.90;;;;;;;9.08;100.00;101664.13;5003008;28;20435;-67
2023/11/07 10:28:15;;;;;;;8.90;5.10;;;;;;;9.42;100.00;101725.50;4988167;28;20460;-67
2023/11/07 10:30:43;;;;;;;10.70;5.27;;;;;;;9.47;100.00;101707.91;4996836;28;20460;-67
2023/11/07 10:33:10;;;;;;;14.63;7.97;;;;;;;9.37;100.00;101687.66;4987511;28;20535;-67
2023/11/07 10:35:59;;;;;;;13.20;5.00;;;;;;;9.52;100.00;101704.75;5004289;28;20436;-67
2023/11/07 10:38:26;;;;;;;9.90;4.23;;;;;;;9.62;100.00;101716.09;4995893;28;20443;-67
2023/11/07 10:40:51;;;;;;;8.50;4.60;;;;;;;9.61;100.00;101686.81;5000251;28;20546;-67
2023/11/07 10:43:37;;;;;;;9.30;4.40;;;;;;;9.52;100.00;101683.31;4998931;28;20504;-67
2023/11/07 10:46:08;;;;;;;13.70;3.83;;;;;;;9.52;100.00;101669.91;4998705;28;20217;-67
2023/11/07 10:48:38;;;;;;;9.93;4.07;;;;;;;9.61;100.00;101665.38;4985826;28;20436;-66
2023/11/07 10:51:05;;;;;;;11.40;4.43;;;;;;;9.63;100.00;101645.44;4972546;28;20460;-67
2023/11/07 10:53:36;;;;;;;7.13;3.80;;;;;;;9.87;100.00;101607.00;5004835;28;20833;-66
2023/11/07 10:56:13;;;;;;;8.97;4.40;;;;;;;9.60;100.00;101607.44;5000696;28;20543;-66
2023/11/07 10:58:59;;;;;;;11.30;5.00;;;;;;;9.89;100.00;101618.38;5000777;28;20446;-66
2023/11/07 11:01:27;;;;;;;9.07;4.27;;;;;;;9.97;100.00;101617.47;5000118;28;21175;-66
2023/11/07 11:03:54;;;;;;;8.70;4.20;;;;;;;10.09;100.00;101601.84;4975121;28;20483;-67
2023/11/07 11:06:26;;;;;;;10.57;4.50;;;;;;;10.10;100.00;101590.13;4997103;28;20511;-67
2023/11/07 11:08:56;;;;;;;10.37;5.00;;;;;;;10.46;100.00;101602.97;4999140;28;20452;-68
2023/11/07 11:11:24;;;;;;;11.03;4.20;;;;;;;10.45;100.00;101596.78;5000947;28;20471;-69
2023/11/07 11:13:59;;;;;;;7.70;3.67;;;;;;;10.11;100.00;101586.41;4995482;28;20440;-68
2023/11/07 11:16:26;;;;;;;9.03;4.60;;;;;;;10.04;100.00;101569.34;5003563;28;20431;-68